Savage Elevate — WDJ7728 — position and weather

sailwx.info

Track history (hours):
 
Tides and Currents Weather Stations Pressure Air Temp Water Temp Dewpoint Dewpoint Depression Visibility Wind Speed Wind Dir Waves Ship Positions

Savage Elevate

Owner: Savage Inland Marine, Gibson, LA. More information available from US FCC via Universal Licensing System and Coast Guard Vessel Documentation Center.

Last reported at 2017-Dec-11 14:23 UTC. Time now 2017-Dec-13 18:54 UTC.
Position N 29°41' W 094°10'.

Length 24 m; draft 3 m.

Type: Tug. MMSI: 367583130.

Date/timePositionNaut miles runAvg speedWind from/ knotsBaromVisibWave heightAir tempDewpointWater temp
2017-Dec-11 14:23N 29°41' W 094°10'15 5.1
2017-Dec-11 11:26N 29°35' W 094°25'2 4.7
2017-Dec-11 10:58N 29°34' W 094°27'5 4.9
2017-Dec-11 09:55N 29°31' W 094°32'2 5.0
2017-Dec-11 09:30N 29°30' W 094°34'5 5.1
2017-Dec-11 08:37N 29°28' W 094°39'10 3.1
2017-Dec-11 05:24N 29°26' W 094°50'2 5.9
2017-Dec-11 04:59N 29°29' W 094°51'3 6.2
2017-Dec-11 04:25N 29°32' W 094°53'3 6.4
2017-Dec-11 04:00N 29°34' W 094°55'3 6.5
2017-Dec-11 03:30N 29°37' W 094°57'3 6.4
2017-Dec-11 03:00N 29°40' W 094°58'3 6.3
2017-Dec-11 02:30N 29°42' W 095°01'3 5.1
2017-Dec-11 02:00N 29°44' W 095°03'3 5.7
2017-Dec-11 01:30N 29°46' W 095°05'0 0.5
2017-Dec-11 00:59N 29°46' W 095°05'0 0.1
2017-Dec-11 00:30N 29°46' W 095°05'0 0.0
2017-Dec-10 23:35N 29°46' W 095°05'0 0.2
2017-Dec-10 23:30N 29°46' W 095°05'0 0.2
2017-Dec-10 22:57N 29°47' W 095°05'1 3.2
2017-Dec-10 22:30N 29°45' W 095°06'2 3.8
2017-Dec-10 21:58N 29°44' W 095°08'0 0.0
2017-Dec-10 21:22N 29°44' W 095°08'0 0.0
2017-Dec-10 20:57N 29°44' W 095°08'0 0.0
2017-Dec-10 20:21N 29°44' W 095°08'0 0.0
2017-Dec-10 19:55N 29°44' W 095°08'0 0.0
2017-Dec-10 19:20N 29°44' W 095°08'0 0.0
2017-Dec-10 18:59N 29°44' W 095°08'0 0.0
2017-Dec-10 18:27N 29°44' W 095°08'0 0.0
2017-Dec-10 18:00N 29°44' W 095°08'0 0.0
2017-Dec-10 17:30N 29°44' W 095°08'0 0.0
2017-Dec-10 17:01N 29°44' W 095°08'0 0.0
2017-Dec-10 16:29N 29°44' W 095°08'0 0.0
2017-Dec-10 15:59N 29°44' W 095°08'0 0.0
2017-Dec-10 15:30N 29°44' W 095°08'0 0.0
2017-Dec-10 15:00N 29°44' W 095°08'0 0.0
2017-Dec-10 14:30N 29°44' W 095°08'0 0.0
2017-Dec-10 14:00N 29°44' W 095°08'0 0.0
2017-Dec-10 13:30N 29°44' W 095°08'0 0.0
2017-Dec-10 13:00N 29°44' W 095°08'0 0.0
2017-Dec-10 12:30N 29°44' W 095°08'0 0.0
2017-Dec-10 12:00N 29°44' W 095°08'0 0.0
2017-Dec-10 11:30N 29°44' W 095°08'0 0.0
2017-Dec-10 11:01N 29°44' W 095°08'0 0.0
2017-Dec-10 10:30N 29°44' W 095°08'0 0.0
2017-Dec-10 09:59N 29°44' W 095°08'0 0.0
2017-Dec-10 09:29N 29°44' W 095°08'0 0.0
2017-Dec-10 09:00N 29°44' W 095°08'0 0.0
2017-Dec-10 08:30N 29°44' W 095°08'0 0.0
2017-Dec-10 08:00N 29°44' W 095°08'0 0.0
2017-Dec-10 07:30N 29°44' W 095°08'0 0.0
2017-Dec-10 07:01N 29°44' W 095°08'0 0.0
2017-Dec-10 06:31N 29°44' W 095°08'0 0.0
2017-Dec-10 06:00N 29°44' W 095°08'0 0.0
2017-Dec-10 05:30N 29°44' W 095°08'0 0.0
2017-Dec-10 05:00N 29°44' W 095°08'0 0.0
2017-Dec-10 04:30N 29°44' W 095°08'0 0.0
2017-Dec-10 04:00N 29°44' W 095°08'0 0.0
2017-Dec-10 03:30N 29°44' W 095°08'0 0.0
2017-Dec-10 03:00N 29°44' W 095°08'0 0.0
2017-Dec-10 02:30N 29°44' W 095°08'0 0.0
2017-Dec-10 01:57N 29°44' W 095°08'0 0.0
2017-Dec-10 01:31N 29°44' W 095°08'0 0.0
2017-Dec-10 00:56N 29°44' W 095°08'0 0.0
2017-Dec-10 00:12N 29°44' W 095°08'0 0.0
2017-Dec-09 20:39N 29°44' W 095°08'0 2.1
2017-Dec-09 20:29N 29°44' W 095°07'3 5.8
2017-Dec-09 19:57N 29°46' W 095°05'1 0.5
2017-Dec-09 17:30N 29°47' W 095°05'0 0.0
2017-Dec-09 16:56N 29°47' W 095°05'0 0.0
2017-Dec-09 16:23N 29°47' W 095°05'0 0.0
2017-Dec-09 16:00N 29°47' W 095°05'0 0.0
2017-Dec-09 15:31N 29°47' W 095°05'0 0.0
2017-Dec-09 15:01N 29°47' W 095°05'0 0.0
2017-Dec-09 14:29N 29°47' W 095°05'0 0.0
2017-Dec-09 14:00N 29°47' W 095°05'0 0.0
2017-Dec-09 13:30N 29°47' W 095°05'0 0.0
2017-Dec-09 12:57N 29°47' W 095°05'0 0.0
2017-Dec-09 12:30N 29°47' W 095°05'0 0.0
2017-Dec-09 12:00N 29°47' W 095°05'0 0.0
2017-Dec-09 11:30N 29°47' W 095°05'0 0.0
2017-Dec-09 10:50N 29°47' W 095°05'0 0.0
2017-Dec-09 10:30N 29°47' W 095°05'0 0.0
2017-Dec-09 09:57N 29°47' W 095°05'0 0.0
2017-Dec-09 08:54N 29°47' W 095°05'0 0.0
2017-Dec-09 08:29N 29°47' W 095°05'0 0.0
2017-Dec-09 08:00N 29°47' W 095°05'0 0.0
2017-Dec-09 07:30N 29°47' W 095°05'0 0.0
2017-Dec-09 06:59N 29°47' W 095°05'0 0.0
2017-Dec-09 06:29N 29°47' W 095°05'0 0.0
2017-Dec-09 05:30N 29°47' W 095°05'0 0.0
2017-Dec-09 05:00N 29°47' W 095°05'0 0.0
2017-Dec-09 04:30N 29°47' W 095°05'0 0.0
2017-Dec-09 03:57N 29°47' W 095°05'0 0.0
2017-Dec-08 23:02N 29°47' W 095°05'0 0.0
2017-Dec-08 23:00N 29°47' W 095°05'0 0.1
2017-Dec-08 20:47N 29°47' W 095°05'3 1.5
2017-Dec-08 18:50N 29°45' W 095°06'0 0.4
2017-Dec-08 18:29N 29°45' W 095°06'1 2.4
2017-Dec-08 18:00N 29°46' W 095°05'2 1.0
2017-Dec-08 16:12N 29°47' W 095°05'0 0.2
2017-Dec-08 15:39N 29°47' W 095°05'2 4.1
2017-Dec-08 15:15N 29°46' W 095°05'2 8.5
2017-Dec-08 14:59N 29°44' W 095°07'4 8.3
2017-Dec-08 14:30N 29°45' W 095°12'2 3.6
2017-Dec-08 14:00N 29°44' W 095°14'0 0.0
2017-Dec-08 13:28N 29°44' W 095°14'0 0.0
2017-Dec-08 12:59N 29°44' W 095°14'0 0.0
2017-Dec-08 12:30N 29°44' W 095°14'0 0.0
2017-Dec-08 11:59N 29°44' W 095°14'0 0.0
2017-Dec-08 11:30N 29°44' W 095°14'0 0.0
2017-Dec-08 11:00N 29°44' W 095°14'0 0.0
2017-Dec-08 10:30N 29°44' W 095°14'0 0.0
2017-Dec-08 10:00N 29°44' W 095°14'0 0.0
2017-Dec-08 09:30N 29°44' W 095°14'0 0.0
2017-Dec-08 09:00N 29°44' W 095°14'0 0.0
2017-Dec-08 08:30N 29°44' W 095°14'0 0.0
2017-Dec-08 08:00N 29°44' W 095°14'0 0.0
2017-Dec-08 07:30N 29°44' W 095°14'0 0.0
2017-Dec-08 07:00N 29°44' W 095°14'0 0.0
2017-Dec-08 06:30N 29°44' W 095°14'0 0.0
2017-Dec-08 06:01N 29°44' W 095°14'0 0.0
2017-Dec-08 05:30N 29°44' W 095°14'0 0.0
2017-Dec-08 05:00N 29°44' W 095°14'0 0.0
2017-Dec-08 04:30N 29°44' W 095°14'0 0.0
2017-Dec-08 04:00N 29°44' W 095°14'0 0.0
2017-Dec-08 03:30N 29°44' W 095°14'0 0.0
2017-Dec-08 03:00N 29°44' W 095°14'0 0.0
2017-Dec-08 02:30N 29°44' W 095°14'0 0.0
2017-Dec-08 02:00N 29°44' W 095°14'0 0.0
2017-Dec-08 01:30N 29°44' W 095°14'0 0.0
2017-Dec-08 01:00N 29°44' W 095°14'0 0.0
2017-Dec-08 00:29N 29°44' W 095°14'0 0.0
2017-Dec-08 00:00N 29°44' W 095°14'0 0.0
2017-Dec-07 23:29N 29°44' W 095°14'0 0.0
2017-Dec-07 23:00N 29°44' W 095°14'0 0.0
2017-Dec-07 22:30N 29°44' W 095°14'0 0.0
2017-Dec-07 22:00N 29°44' W 095°14'2 3.9
2017-Dec-07 21:30N 29°45' W 095°12'4 7.0
2017-Dec-07 20:55N 29°44' W 095°07'3 7.1
2017-Dec-07 20:30N 29°47' W 095°05'2 0.3
2017-Dec-07 14:27N 29°45' W 095°06'1 2.9
2017-Dec-07 13:59N 29°44' W 095°07'3 5.9
2017-Dec-07 13:30N 29°46' W 095°05'1 0.1
2017-Dec-07 02:31N 29°47' W 095°05'  
2017-Dec-03 17:30N 29°52' W 093°60'0 0.0
2017-Dec-03 16:02N 29°52' W 093°60'0 0.0
2017-Dec-03 15:31N 29°52' W 093°60'0 0.0
2017-Dec-03 15:30N 29°52' W 093°60'0 0.0
2017-Dec-03 15:00N 29°52' W 093°60'0 0.0
2017-Dec-03 12:57N 29°52' W 093°60'0 0.0
2017-Dec-03 12:26N 29°52' W 093°60'0 0.0
2017-Dec-03 12:00N 29°52' W 093°60'0 0.0
2017-Dec-03 10:53N 29°52' W 093°60'0 0.0
2017-Dec-03 10:30N 29°52' W 093°60'0 0.0
2017-Dec-03 10:00N 29°52' W 093°60'0 0.0
2017-Dec-03 09:17N 29°52' W 093°60'0 0.0
2017-Dec-03 08:56N 29°52' W 093°60'0 0.0
2017-Dec-03 08:01N 29°52' W 093°60'0 0.0
2017-Dec-03 08:00N 29°52' W 093°60'  
Track history (hours):
 
Tides and Currents Weather Stations Pressure Air Temp Water Temp Dewpoint Dewpoint Depression Visibility Wind Speed Wind Dir Waves Ship Positions

Savage Elevate

Owner: Savage Inland Marine, Gibson, LA. More information available from US FCC via Universal Licensing System and Coast Guard Vessel Documentation Center.

Last reported at 2017-Dec-11 14:23 UTC. Time now 2017-Dec-13 18:54 UTC.
Position N 29°41' W 094°10'.

Length 24 m; draft 3 m.

Type: Tug. MMSI: 367583130.

Date/timePositionNaut miles runAvg speedWind from/ knotsBaromVisibWave heightAir tempDewpointWater temp
2017-Dec-11 14:23N 29°41' W 094°10'15 5.1
2017-Dec-11 11:26N 29°35' W 094°25'2 4.7
2017-Dec-11 10:58N 29°34' W 094°27'5 4.9
2017-Dec-11 09:55N 29°31' W 094°32'2 5.0
2017-Dec-11 09:30N 29°30' W 094°34'5 5.1
2017-Dec-11 08:37N 29°28' W 094°39'10 3.1
2017-Dec-11 05:24N 29°26' W 094°50'2 5.9
2017-Dec-11 04:59N 29°29' W 094°51'3 6.2
2017-Dec-11 04:25N 29°32' W 094°53'3 6.4
2017-Dec-11 04:00N 29°34' W 094°55'3 6.5
2017-Dec-11 03:30N 29°37' W 094°57'3 6.4
2017-Dec-11 03:00N 29°40' W 094°58'3 6.3
2017-Dec-11 02:30N 29°42' W 095°01'3 5.1
2017-Dec-11 02:00N 29°44' W 095°03'3 5.7
2017-Dec-11 01:30N 29°46' W 095°05'0 0.5
2017-Dec-11 00:59N 29°46' W 095°05'0 0.1
2017-Dec-11 00:30N 29°46' W 095°05'0 0.0
2017-Dec-10 23:35N 29°46' W 095°05'0 0.2
2017-Dec-10 23:30N 29°46' W 095°05'0 0.2
2017-Dec-10 22:57N 29°47' W 095°05'1 3.2
2017-Dec-10 22:30N 29°45' W 095°06'2 3.8
2017-Dec-10 21:58N 29°44' W 095°08'0 0.0
2017-Dec-10 21:22N 29°44' W 095°08'0 0.0
2017-Dec-10 20:57N 29°44' W 095°08'0 0.0
2017-Dec-10 20:21N 29°44' W 095°08'0 0.0
2017-Dec-10 19:55N 29°44' W 095°08'0 0.0
2017-Dec-10 19:20N 29°44' W 095°08'0 0.0
2017-Dec-10 18:59N 29°44' W 095°08'0 0.0
2017-Dec-10 18:27N 29°44' W 095°08'0 0.0
2017-Dec-10 18:00N 29°44' W 095°08'0 0.0
2017-Dec-10 17:30N 29°44' W 095°08'0 0.0
2017-Dec-10 17:01N 29°44' W 095°08'0 0.0
2017-Dec-10 16:29N 29°44' W 095°08'0 0.0
2017-Dec-10 15:59N 29°44' W 095°08'0 0.0
2017-Dec-10 15:30N 29°44' W 095°08'0 0.0
2017-Dec-10 15:00N 29°44' W 095°08'0 0.0
2017-Dec-10 14:30N 29°44' W 095°08'0 0.0
2017-Dec-10 14:00N 29°44' W 095°08'0 0.0
2017-Dec-10 13:30N 29°44' W 095°08'0 0.0
2017-Dec-10 13:00N 29°44' W 095°08'0 0.0
2017-Dec-10 12:30N 29°44' W 095°08'0 0.0
2017-Dec-10 12:00N 29°44' W 095°08'0 0.0
2017-Dec-10 11:30N 29°44' W 095°08'0 0.0
2017-Dec-10 11:01N 29°44' W 095°08'0 0.0
2017-Dec-10 10:30N 29°44' W 095°08'0 0.0
2017-Dec-10 09:59N 29°44' W 095°08'0 0.0
2017-Dec-10 09:29N 29°44' W 095°08'0 0.0
2017-Dec-10 09:00N 29°44' W 095°08'0 0.0
2017-Dec-10 08:30N 29°44' W 095°08'0 0.0
2017-Dec-10 08:00N 29°44' W 095°08'0 0.0
2017-Dec-10 07:30N 29°44' W 095°08'0 0.0
2017-Dec-10 07:01N 29°44' W 095°08'0 0.0
2017-Dec-10 06:31N 29°44' W 095°08'0 0.0
2017-Dec-10 06:00N 29°44' W 095°08'0 0.0
2017-Dec-10 05:30N 29°44' W 095°08'0 0.0
2017-Dec-10 05:00N 29°44' W 095°08'0 0.0
2017-Dec-10 04:30N 29°44' W 095°08'0 0.0
2017-Dec-10 04:00N 29°44' W 095°08'0 0.0
2017-Dec-10 03:30N 29°44' W 095°08'0 0.0
2017-Dec-10 03:00N 29°44' W 095°08'0 0.0
2017-Dec-10 02:30N 29°44' W 095°08'0 0.0
2017-Dec-10 01:57N 29°44' W 095°08'0 0.0
2017-Dec-10 01:31N 29°44' W 095°08'0 0.0
2017-Dec-10 00:56N 29°44' W 095°08'0 0.0
2017-Dec-10 00:12N 29°44' W 095°08'0 0.0
2017-Dec-09 20:39N 29°44' W 095°08'0 2.1
2017-Dec-09 20:29N 29°44' W 095°07'3 5.8
2017-Dec-09 19:57N 29°46' W 095°05'1 0.5
2017-Dec-09 17:30N 29°47' W 095°05'0 0.0
2017-Dec-09 16:56N 29°47' W 095°05'0 0.0
2017-Dec-09 16:23N 29°47' W 095°05'0 0.0
2017-Dec-09 16:00N 29°47' W 095°05'0 0.0
2017-Dec-09 15:31N 29°47' W 095°05'0 0.0
2017-Dec-09 15:01N 29°47' W 095°05'0 0.0
2017-Dec-09 14:29N 29°47' W 095°05'0 0.0
2017-Dec-09 14:00N 29°47' W 095°05'0 0.0
2017-Dec-09 13:30N 29°47' W 095°05'0 0.0
2017-Dec-09 12:57N 29°47' W 095°05'0 0.0
2017-Dec-09 12:30N 29°47' W 095°05'0 0.0
2017-Dec-09 12:00N 29°47' W 095°05'0 0.0
2017-Dec-09 11:30N 29°47' W 095°05'0 0.0
2017-Dec-09 10:50N 29°47' W 095°05'0 0.0
2017-Dec-09 10:30N 29°47' W 095°05'0 0.0
2017-Dec-09 09:57N 29°47' W 095°05'0 0.0
2017-Dec-09 08:54N 29°47' W 095°05'0 0.0
2017-Dec-09 08:29N 29°47' W 095°05'0 0.0
2017-Dec-09 08:00N 29°47' W 095°05'0 0.0
2017-Dec-09 07:30N 29°47' W 095°05'0 0.0
2017-Dec-09 06:59N 29°47' W 095°05'0 0.0
2017-Dec-09 06:29N 29°47' W 095°05'0 0.0
2017-Dec-09 05:30N 29°47' W 095°05'0 0.0
2017-Dec-09 05:00N 29°47' W 095°05'0 0.0
2017-Dec-09 04:30N 29°47' W 095°05'0 0.0
2017-Dec-09 03:57N 29°47' W 095°05'0 0.0
2017-Dec-08 23:02N 29°47' W 095°05'0 0.0
2017-Dec-08 23:00N 29°47' W 095°05'0 0.1
2017-Dec-08 20:47N 29°47' W 095°05'3 1.5
2017-Dec-08 18:50N 29°45' W 095°06'0 0.4
2017-Dec-08 18:29N 29°45' W 095°06'1 2.4
2017-Dec-08 18:00N 29°46' W 095°05'2 1.0
2017-Dec-08 16:12N 29°47' W 095°05'0 0.2
2017-Dec-08 15:39N 29°47' W 095°05'2 4.1
2017-Dec-08 15:15N 29°46' W 095°05'2 8.5
2017-Dec-08 14:59N 29°44' W 095°07'4 8.3
2017-Dec-08 14:30N 29°45' W 095°12'2 3.6
2017-Dec-08 14:00N 29°44' W 095°14'0 0.0
2017-Dec-08 13:28N 29°44' W 095°14'0 0.0
2017-Dec-08 12:59N 29°44' W 095°14'0 0.0
2017-Dec-08 12:30N 29°44' W 095°14'0 0.0
2017-Dec-08 11:59N 29°44' W 095°14'0 0.0
2017-Dec-08 11:30N 29°44' W 095°14'0 0.0
2017-Dec-08 11:00N 29°44' W 095°14'0 0.0
2017-Dec-08 10:30N 29°44' W 095°14'0 0.0
2017-Dec-08 10:00N 29°44' W 095°14'0 0.0
2017-Dec-08 09:30N 29°44' W 095°14'0 0.0
2017-Dec-08 09:00N 29°44' W 095°14'0 0.0
2017-Dec-08 08:30N 29°44' W 095°14'0 0.0
2017-Dec-08 08:00N 29°44' W 095°14'0 0.0
2017-Dec-08 07:30N 29°44' W 095°14'0 0.0
2017-Dec-08 07:00N 29°44' W 095°14'0 0.0
2017-Dec-08 06:30N 29°44' W 095°14'0 0.0
2017-Dec-08 06:01N 29°44' W 095°14'0 0.0
2017-Dec-08 05:30N 29°44' W 095°14'0 0.0
2017-Dec-08 05:00N 29°44' W 095°14'0 0.0
2017-Dec-08 04:30N 29°44' W 095°14'0 0.0
2017-Dec-08 04:00N 29°44' W 095°14'0 0.0
2017-Dec-08 03:30N 29°44' W 095°14'0 0.0
2017-Dec-08 03:00N 29°44' W 095°14'0 0.0
2017-Dec-08 02:30N 29°44' W 095°14'0 0.0
2017-Dec-08 02:00N 29°44' W 095°14'0 0.0
2017-Dec-08 01:30N 29°44' W 095°14'0 0.0
2017-Dec-08 01:00N 29°44' W 095°14'0 0.0
2017-Dec-08 00:29N 29°44' W 095°14'0 0.0
2017-Dec-08 00:00N 29°44' W 095°14'0 0.0
2017-Dec-07 23:29N 29°44' W 095°14'0 0.0
2017-Dec-07 23:00N 29°44' W 095°14'0 0.0
2017-Dec-07 22:30N 29°44' W 095°14'0 0.0
2017-Dec-07 22:00N 29°44' W 095°14'2 3.9
2017-Dec-07 21:30N 29°45' W 095°12'4 7.0
2017-Dec-07 20:55N 29°44' W 095°07'3 7.1
2017-Dec-07 20:30N 29°47' W 095°05'2 0.3
2017-Dec-07 14:27N 29°45' W 095°06'1 2.9
2017-Dec-07 13:59N 29°44' W 095°07'3 5.9
2017-Dec-07 13:30N 29°46' W 095°05'1 0.1
2017-Dec-07 02:31N 29°47' W 095°05'  
2017-Dec-03 17:30N 29°52' W 093°60'0 0.0
2017-Dec-03 16:02N 29°52' W 093°60'0 0.0
2017-Dec-03 15:31N 29°52' W 093°60'0 0.0
2017-Dec-03 15:30N 29°52' W 093°60'0 0.0
2017-Dec-03 15:00N 29°52' W 093°60'0 0.0
2017-Dec-03 12:57N 29°52' W 093°60'0 0.0
2017-Dec-03 12:26N 29°52' W 093°60'0 0.0
2017-Dec-03 12:00N 29°52' W 093°60'0 0.0
2017-Dec-03 10:53N 29°52' W 093°60'0 0.0
2017-Dec-03 10:30N 29°52' W 093°60'0 0.0
2017-Dec-03 10:00N 29°52' W 093°60'0 0.0
2017-Dec-03 09:17N 29°52' W 093°60'0 0.0
2017-Dec-03 08:56N 29°52' W 093°60'0 0.0
2017-Dec-03 08:01N 29°52' W 093°60'0 0.0
2017-Dec-03 08:00N 29°52' W 093°60'  

Dump ship's entire track history